sensor_id;sensor_type;location;lat;lon;timestamp;P1;durP1;ratioP1;P2;durP2;ratioP2
83562;SDS011;73535;52.500;13.482;2023-12-04T00:00:21;35.20;;;16.20;;
83562;SDS011;73535;52.500;13.482;2023-12-04T00:02:46;40.85;;;18.15;;
83562;SDS011;73535;52.500;13.482;2023-12-04T00:05:12;34.78;;;16.67;;
83562;SDS011;73535;52.500;13.482;2023-12-04T00:07:37;37.10;;;18.08;;
83562;SDS011;73535;52.500;13.482;2023-12-04T00:10:02;36.58;;;16.88;;
83562;SDS011;73535;52.500;13.482;2023-12-04T00:12:28;35.17;;;17.77;;
83562;SDS011;73535;52.500;13.482;2023-12-04T00:14:53;36.55;;;18.17;;
83562;SDS011;73535;52.500;13.482;2023-12-04T00:17:18;35.00;;;17.13;;
83562;SDS011;73535;52.500;13.482;2023-12-04T00:19:43;33.08;;;16.92;;
83562;SDS011;73535;52.500;13.482;2023-12-04T00:22:08;38.33;;;17.05;;
83562;SDS011;73535;52.500;13.482;2023-12-04T00:24:34;37.47;;;17.52;;
83562;SDS011;73535;52.500;13.482;2023-12-04T00:26:59;34.55;;;17.30;;
83562;SDS011;73535;52.500;13.482;2023-12-04T00:29:24;38.17;;;18.15;;
83562;SDS011;73535;52.500;13.482;2023-12-04T00:31:49;35.63;;;18.52;;
83562;SDS011;73535;52.500;13.482;2023-12-04T00:34:15;34.63;;;17.20;;
83562;SDS011;73535;52.500;13.482;2023-12-04T00:36:40;37.65;;;18.08;;
83562;SDS011;73535;52.500;13.482;2023-12-04T00:39:05;35.33;;;17.88;;
83562;SDS011;73535;52.500;13.482;2023-12-04T00:41:30;35.55;;;17.52;;
83562;SDS011;73535;52.500;13.482;2023-12-04T00:43:56;36.95;;;17.40;;
83562;SDS011;73535;52.500;13.482;2023-12-04T00:46:21;35.15;;;18.65;;
83562;SDS011;73535;52.500;13.482;2023-12-04T00:48:46;37.78;;;18.40;;
83562;SDS011;73535;52.500;13.482;2023-12-04T00:51:12;37.33;;;17.88;;
83562;SDS011;73535;52.500;13.482;2023-12-04T00:53:37;32.50;;;17.17;;
83562;SDS011;73535;52.500;13.482;2023-12-04T00:56:02;36.58;;;17.65;;
83562;SDS011;73535;52.500;13.482;2023-12-04T00:58:28;34.92;;;16.77;;
83562;SDS011;73535;52.500;13.482;2023-12-04T01:00:53;34.10;;;18.60;;
83562;SDS011;73535;52.500;13.482;2023-12-04T01:03:18;36.03;;;16.67;;
83562;SDS011;73535;52.500;13.482;2023-12-04T01:05:43;35.35;;;16.98;;
83562;SDS011;73535;52.500;13.482;2023-12-04T01:08:09;32.15;;;15.90;;
83562;SDS011;73535;52.500;13.482;2023-12-04T01:10:34;36.92;;;17.45;;
83562;SDS011;73535;52.500;13.482;2023-12-04T01:12:59;33.25;;;17.20;;
83562;SDS011;73535;52.500;13.482;2023-12-04T01:15:24;37.13;;;18.30;;
83562;SDS011;73535;52.500;13.482;2023-12-04T01:17:50;40.22;;;17.88;;
83562;SDS011;73535;52.500;13.482;2023-12-04T01:20:15;35.97;;;17.83;;
83562;SDS011;73535;52.500;13.482;2023-12-04T01:22:40;36.95;;;16.50;;
83562;SDS011;73535;52.500;13.482;2023-12-04T01:25:05;35.45;;;18.40;;
83562;SDS011;73535;52.500;13.482;2023-12-04T01:27:31;35.88;;;16.83;;
83562;SDS011;73535;52.500;13.482;2023-12-04T01:29:56;34.22;;;17.63;;
83562;SDS011;73535;52.500;13.482;2023-12-04T01:32:22;34.67;;;16.48;;
83562;SDS011;73535;52.500;13.482;2023-12-04T01:34:47;38.00;;;18.65;;
83562;SDS011;73535;52.500;13.482;2023-12-04T01:37:12;37.67;;;17.90;;
83562;SDS011;73535;52.500;13.482;2023-12-04T01:39:37;33.20;;;16.38;;
83562;SDS011;73535;52.500;13.482;2023-12-04T01:42:03;39.83;;;17.70;;
83562;SDS011;73535;52.500;13.482;2023-12-04T01:44:28;33.33;;;17.13;;
83562;SDS011;73535;52.500;13.482;2023-12-04T01:46:53;36.97;;;17.17;;
83562;SDS011;73535;52.500;13.482;2023-12-04T01:49:19;35.55;;;18.15;;
83562;SDS011;73535;52.500;13.482;2023-12-04T01:51:44;33.10;;;17.05;;
83562;SDS011;73535;52.500;13.482;2023-12-04T01:54:10;40.22;;;17.38;;
83562;SDS011;73535;52.500;13.482;2023-12-04T01:56:36;33.78;;;16.35;;
83562;SDS011;73535;52.500;13.482;2023-12-04T01:59:02;39.42;;;16.95;;
83562;SDS011;73535;52.500;13.482;2023-12-04T02:01:28;37.47;;;17.10;;
83562;SDS011;73535;52.500;13.482;2023-12-04T02:03:54;41.00;;;17.70;;
83562;SDS011;73535;52.500;13.482;2023-12-04T02:06:21;36.90;;;18.17;;
83562;SDS011;73535;52.500;13.482;2023-12-04T02:08:46;43.72;;;18.95;;
83562;SDS011;73535;52.500;13.482;2023-12-04T02:11:12;37.38;;;17.60;;
83562;SDS011;73535;52.500;13.482;2023-12-04T02:13:38;40.45;;;18.35;;
83562;SDS011;73535;52.500;13.482;2023-12-04T02:16:03;39.00;;;18.00;;
83562;SDS011;73535;52.500;13.482;2023-12-04T02:18:34;40.38;;;19.13;;
83562;SDS011;73535;52.500;13.482;2023-12-04T02:21:00;38.13;;;18.60;;
83562;SDS011;73535;52.500;13.482;2023-12-04T02:23:26;35.60;;;17.65;;
83562;SDS011;73535;52.500;13.482;2023-12-04T02:25:51;38.47;;;17.20;;
83562;SDS011;73535;52.500;13.482;2023-12-04T02:28:25;34.42;;;16.70;;
83562;SDS011;73535;52.500;13.482;2023-12-04T02:30:55;36.50;;;17.98;;
83562;SDS011;73535;52.500;13.482;2023-12-04T02:33:23;37.25;;;16.90;;
83562;SDS011;73535;52.500;13.482;2023-12-04T02:35:49;37.08;;;16.98;;
83562;SDS011;73535;52.500;13.482;2023-12-04T02:38:16;36.40;;;17.35;;
83562;SDS011;73535;52.500;13.482;2023-12-04T02:40:41;36.47;;;17.10;;
83562;SDS011;73535;52.500;13.482;2023-12-04T02:43:06;33.45;;;16.52;;
83562;SDS011;73535;52.500;13.482;2023-12-04T02:45:31;37.35;;;17.25;;
83562;SDS011;73535;52.500;13.482;2023-12-04T02:47:57;36.88;;;18.42;;
83562;SDS011;73535;52.500;13.482;2023-12-04T02:50:22;37.28;;;18.52;;
83562;SDS011;73535;52.500;13.482;2023-12-04T02:52:47;38.78;;;17.92;;
83562;SDS011;73535;52.500;13.482;2023-12-04T02:55:12;35.78;;;17.25;;
83562;SDS011;73535;52.500;13.482;2023-12-04T02:57:38;34.60;;;16.95;;
83562;SDS011;73535;52.500;13.482;2023-12-04T03:00:03;34.45;;;16.65;;
83562;SDS011;73535;52.500;13.482;2023-12-04T03:02:29;36.08;;;16.83;;
83562;SDS011;73535;52.500;13.482;2023-12-04T03:04:54;37.88;;;17.25;;
83562;SDS011;73535;52.500;13.482;2023-12-04T03:07:20;35.70;;;17.38;;
83562;SDS011;73535;52.500;13.482;2023-12-04T03:09:46;33.90;;;16.70;;
83562;SDS011;73535;52.500;13.482;2023-12-04T03:12:11;36.38;;;16.55;;
83562;SDS011;73535;52.500;13.482;2023-12-04T03:14:36;34.45;;;17.05;;
83562;SDS011;73535;52.500;13.482;2023-12-04T03:17:02;37.55;;;18.40;;
83562;SDS011;73535;52.500;13.482;2023-12-04T03:19:27;35.58;;;16.75;;
83562;SDS011;73535;52.500;13.482;2023-12-04T03:21:52;35.38;;;17.20;;
83562;SDS011;73535;52.500;13.482;2023-12-04T03:24:17;38.17;;;16.85;;
83562;SDS011;73535;52.500;13.482;2023-12-04T03:26:42;37.40;;;17.95;;
83562;SDS011;73535;52.500;13.482;2023-12-04T03:29:08;37.63;;;18.00;;
83562;SDS011;73535;52.500;13.482;2023-12-04T03:31:33;38.35;;;17.33;;
83562;SDS011;73535;52.500;13.482;2023-12-04T03:33:59;36.88;;;17.15;;
83562;SDS011;73535;52.500;13.482;2023-12-04T03:36:24;38.70;;;17.23;;
83562;SDS011;73535;52.500;13.482;2023-12-04T03:38:49;35.40;;;17.13;;
83562;SDS011;73535;52.500;13.482;2023-12-04T03:41:15;35.80;;;17.08;;
83562;SDS011;73535;52.500;13.482;2023-12-04T03:43:41;33.42;;;17.95;;
83562;SDS011;73535;52.500;13.482;2023-12-04T03:46:06;38.40;;;17.70;;
83562;SDS011;73535;52.500;13.482;2023-12-04T03:48:31;35.17;;;16.45;;
83562;SDS011;73535;52.500;13.482;2023-12-04T03:50:57;31.83;;;17.13;;
83562;SDS011;73535;52.500;13.482;2023-12-04T03:53:22;36.08;;;16.83;;
83562;SDS011;73535;52.500;13.482;2023-12-04T03:55:47;33.05;;;16.52;;
83562;SDS011;73535;52.500;13.482;2023-12-04T03:58:12;29.30;;;16.15;;
83562;SDS011;73535;52.500;13.482;2023-12-04T04:00:38;36.47;;;16.70;;
83562;SDS011;73535;52.500;13.482;2023-12-04T04:03:08;36.75;;;17.63;;
83562;SDS011;73535;52.500;13.482;2023-12-04T04:05:33;36.75;;;16.52;;
83562;SDS011;73535;52.500;13.482;2023-12-04T04:07:59;34.97;;;16.85;;
83562;SDS011;73535;52.500;13.482;2023-12-04T04:10:24;34.10;;;15.77;;
83562;SDS011;73535;52.500;13.482;2023-12-04T04:12:49;32.20;;;15.85;;
83562;SDS011;73535;52.500;13.482;2023-12-04T04:15:15;37.78;;;17.23;;
83562;SDS011;73535;52.500;13.482;2023-12-04T04:17:40;29.35;;;15.90;;
83562;SDS011;73535;52.500;13.482;2023-12-04T04:20:05;33.58;;;17.17;;
83562;SDS011;73535;52.500;13.482;2023-12-04T04:22:31;30.92;;;14.98;;
83562;SDS011;73535;52.500;13.482;2023-12-04T04:24:59;31.98;;;15.65;;
83562;SDS011;73535;52.500;13.482;2023-12-04T04:27:24;33.03;;;15.98;;
83562;SDS011;73535;52.500;13.482;2023-12-04T04:29:49;33.67;;;16.38;;
83562;SDS011;73535;52.500;13.482;2023-12-04T04:32:15;32.65;;;16.05;;
83562;SDS011;73535;52.500;13.482;2023-12-04T04:34:40;30.20;;;16.02;;
83562;SDS011;73535;52.500;13.482;2023-12-04T04:37:05;31.63;;;15.65;;
83562;SDS011;73535;52.500;13.482;2023-12-04T04:39:30;32.80;;;16.52;;
83562;SDS011;73535;52.500;13.482;2023-12-04T04:41:56;35.85;;;16.17;;
83562;SDS011;73535;52.500;13.482;2023-12-04T04:44:21;35.35;;;17.17;;
83562;SDS011;73535;52.500;13.482;2023-12-04T04:46:46;31.63;;;16.75;;
83562;SDS011;73535;52.500;13.482;2023-12-04T04:49:11;31.63;;;14.82;;
83562;SDS011;73535;52.500;13.482;2023-12-04T04:51:37;34.83;;;15.77;;
83562;SDS011;73535;52.500;13.482;2023-12-04T04:54:02;29.30;;;14.43;;
83562;SDS011;73535;52.500;13.482;2023-12-04T04:56:27;32.33;;;16.13;;
83562;SDS011;73535;52.500;13.482;2023-12-04T04:58:52;34.15;;;16.25;;
83562;SDS011;73535;52.500;13.482;2023-12-04T05:01:18;33.58;;;14.43;;
83562;SDS011;73535;52.500;13.482;2023-12-04T05:03:43;29.23;;;14.63;;
83562;SDS011;73535;52.500;13.482;2023-12-04T05:06:08;31.65;;;15.68;;
83562;SDS011;73535;52.500;13.482;2023-12-04T05:08:34;32.38;;;15.10;;
83562;SDS011;73535;52.500;13.482;2023-12-04T05:10:59;31.85;;;15.00;;
83562;SDS011;73535;52.500;13.482;2023-12-04T05:13:24;29.00;;;14.13;;
83562;SDS011;73535;52.500;13.482;2023-12-04T05:15:49;29.85;;;14.57;;
83562;SDS011;73535;52.500;13.482;2023-12-04T05:18:15;29.58;;;14.85;;
83562;SDS011;73535;52.500;13.482;2023-12-04T05:20:40;33.60;;;15.30;;
83562;SDS011;73535;52.500;13.482;2023-12-04T05:23:05;30.30;;;15.38;;
83562;SDS011;73535;52.500;13.482;2023-12-04T05:25:30;28.23;;;14.52;;
83562;SDS011;73535;52.500;13.482;2023-12-04T05:27:56;26.67;;;14.10;;
83562;SDS011;73535;52.500;13.482;2023-12-04T05:30:21;27.98;;;15.45;;
83562;SDS011;73535;52.500;13.482;2023-12-04T05:32:46;31.15;;;15.63;;
83562;SDS011;73535;52.500;13.482;2023-12-04T05:35:11;31.13;;;16.13;;
83562;SDS011;73535;52.500;13.482;2023-12-04T05:37:36;28.98;;;15.60;;
83562;SDS011;73535;52.500;13.482;2023-12-04T05:40:02;29.88;;;14.52;;
83562;SDS011;73535;52.500;13.482;2023-12-04T05:42:28;26.70;;;13.27;;
83562;SDS011;73535;52.500;13.482;2023-12-04T05:44:54;30.33;;;15.77;;
83562;SDS011;73535;52.500;13.482;2023-12-04T05:47:20;31.15;;;15.13;;
83562;SDS011;73535;52.500;13.482;2023-12-04T05:49:46;31.40;;;16.83;;
83562;SDS011;73535;52.500;13.482;2023-12-04T05:52:11;32.13;;;16.35;;
83562;SDS011;73535;52.500;13.482;2023-12-04T05:54:36;31.98;;;17.98;;
83562;SDS011;73535;52.500;13.482;2023-12-04T05:57:02;33.40;;;17.90;;
83562;SDS011;73535;52.500;13.482;2023-12-04T05:59:27;31.67;;;17.95;;
83562;SDS011;73535;52.500;13.482;2023-12-04T06:01:52;31.23;;;17.80;;
83562;SDS011;73535;52.500;13.482;2023-12-04T06:04:17;36.30;;;17.48;;
83562;SDS011;73535;52.500;13.482;2023-12-04T06:06:43;31.98;;;17.65;;
83562;SDS011;73535;52.500;13.482;2023-12-04T06:09:08;36.38;;;17.85;;
83562;SDS011;73535;52.500;13.482;2023-12-04T06:11:33;31.13;;;17.67;;
83562;SDS011;73535;52.500;13.482;2023-12-04T06:13:58;33.83;;;18.17;;
83562;SDS011;73535;52.500;13.482;2023-12-04T06:16:24;38.80;;;20.25;;
83562;SDS011;73535;52.500;13.482;2023-12-04T06:18:49;30.15;;;19.40;;
83562;SDS011;73535;52.500;13.482;2023-12-04T06:21:14;31.58;;;16.85;;
83562;SDS011;73535;52.500;13.482;2023-12-04T06:23:40;30.75;;;15.65;;
83562;SDS011;73535;52.500;13.482;2023-12-04T06:26:05;33.78;;;16.63;;
83562;SDS011;73535;52.500;13.482;2023-12-04T06:28:31;30.38;;;15.60;;
83562;SDS011;73535;52.500;13.482;2023-12-04T06:30:57;34.15;;;15.70;;
83562;SDS011;73535;52.500;13.482;2023-12-04T06:33:23;34.95;;;16.70;;
83562;SDS011;73535;52.500;13.482;2023-12-04T06:35:48;31.02;;;15.57;;
83562;SDS011;73535;52.500;13.482;2023-12-04T06:38:14;28.95;;;15.18;;
83562;SDS011;73535;52.500;13.482;2023-12-04T06:40:41;32.15;;;16.02;;
83562;SDS011;73535;52.500;13.482;2023-12-04T06:43:06;29.13;;;15.27;;
83562;SDS011;73535;52.500;13.482;2023-12-04T06:45:32;29.67;;;15.10;;
83562;SDS011;73535;52.500;13.482;2023-12-04T06:47:57;30.85;;;16.25;;
83562;SDS011;73535;52.500;13.482;2023-12-04T06:50:23;27.88;;;15.57;;
83562;SDS011;73535;52.500;13.482;2023-12-04T06:52:49;32.70;;;14.65;;
83562;SDS011;73535;52.500;13.482;2023-12-04T06:55:14;31.52;;;15.30;;
83562;SDS011;73535;52.500;13.482;2023-12-04T06:57:39;26.92;;;14.85;;
83562;SDS011;73535;52.500;13.482;2023-12-04T07:00:05;27.90;;;14.75;;
83562;SDS011;73535;52.500;13.482;2023-12-04T07:02:37;31.70;;;16.08;;
83562;SDS011;73535;52.500;13.482;2023-12-04T07:05:02;30.25;;;14.82;;
83562;SDS011;73535;52.500;13.482;2023-12-04T07:07:28;29.73;;;14.75;;
83562;SDS011;73535;52.500;13.482;2023-12-04T07:09:53;28.33;;;15.07;;
83562;SDS011;73535;52.500;13.482;2023-12-04T07:12:18;29.55;;;15.52;;
83562;SDS011;73535;52.500;13.482;2023-12-04T07:14:43;28.38;;;15.25;;
83562;SDS011;73535;52.500;13.482;2023-12-04T07:17:09;30.48;;;14.55;;
83562;SDS011;73535;52.500;13.482;2023-12-04T07:19:34;27.30;;;14.60;;
83562;SDS011;73535;52.500;13.482;2023-12-04T07:21:59;31.30;;;14.75;;
83562;SDS011;73535;52.500;13.482;2023-12-04T07:24:25;30.77;;;15.25;;
83562;SDS011;73535;52.500;13.482;2023-12-04T07:26:51;33.85;;;15.35;;
83562;SDS011;73535;52.500;13.482;2023-12-04T07:29:16;27.98;;;14.68;;
83562;SDS011;73535;52.500;13.482;2023-12-04T07:31:41;28.27;;;14.57;;
83562;SDS011;73535;52.500;13.482;2023-12-04T07:34:07;29.23;;;15.00;;
83562;SDS011;73535;52.500;13.482;2023-12-04T07:36:32;28.98;;;15.65;;
83562;SDS011;73535;52.500;13.482;2023-12-04T07:38:57;26.98;;;14.68;;
83562;SDS011;73535;52.500;13.482;2023-12-04T07:41:23;29.42;;;15.95;;
83562;SDS011;73535;52.500;13.482;2023-12-04T07:43:48;28.08;;;13.80;;
83562;SDS011;73535;52.500;13.482;2023-12-04T07:46:14;26.23;;;13.80;;
83562;SDS011;73535;52.500;13.482;2023-12-04T07:48:39;28.75;;;15.13;;
83562;SDS011;73535;52.500;13.482;2023-12-04T07:51:05;28.63;;;14.32;;
83562;SDS011;73535;52.500;13.482;2023-12-04T07:53:30;27.67;;;13.75;;
83562;SDS011;73535;52.500;13.482;2023-12-04T07:55:56;26.92;;;13.38;;
83562;SDS011;73535;52.500;13.482;2023-12-04T07:58:22;29.38;;;14.85;;
83562;SDS011;73535;52.500;13.482;2023-12-04T08:00:47;28.10;;;13.85;;
83562;SDS011;73535;52.500;13.482;2023-12-04T08:03:13;28.88;;;15.02;;
83562;SDS011;73535;52.500;13.482;2023-12-04T08:05:38;25.73;;;14.48;;
83562;SDS011;73535;52.500;13.482;2023-12-04T08:08:03;23.48;;;13.00;;
83562;SDS011;73535;52.500;13.482;2023-12-04T08:10:28;29.25;;;14.40;;
83562;SDS011;73535;52.500;13.482;2023-12-04T08:12:54;30.20;;;15.23;;
83562;SDS011;73535;52.500;13.482;2023-12-04T08:15:19;28.45;;;15.57;;
83562;SDS011;73535;52.500;13.482;2023-12-04T08:17:44;28.20;;;15.07;;
83562;SDS011;73535;52.500;13.482;2023-12-04T08:20:10;28.98;;;15.50;;
83562;SDS011;73535;52.500;13.482;2023-12-04T08:22:38;29.20;;;14.73;;
83562;SDS011;73535;52.500;13.482;2023-12-04T08:25:05;30.13;;;16.50;;
83562;SDS011;73535;52.500;13.482;2023-12-04T08:27:31;30.85;;;15.65;;
83562;SDS011;73535;52.500;13.482;2023-12-04T08:29:57;26.45;;;14.27;;
83562;SDS011;73535;52.500;13.482;2023-12-04T08:32:22;34.17;;;17.88;;
83562;SDS011;73535;52.500;13.482;2023-12-04T08:34:47;27.23;;;13.82;;
83562;SDS011;73535;52.500;13.482;2023-12-04T08:37:12;27.63;;;15.07;;
83562;SDS011;73535;52.500;13.482;2023-12-04T08:39:38;28.05;;;14.82;;
83562;SDS011;73535;52.500;13.482;2023-12-04T08:42:03;30.27;;;16.80;;
83562;SDS011;73535;52.500;13.482;2023-12-04T08:44:28;26.23;;;14.40;;
83562;SDS011;73535;52.500;13.482;2023-12-04T08:46:54;26.23;;;14.48;;
83562;SDS011;73535;52.500;13.482;2023-12-04T08:49:19;29.08;;;14.40;;
83562;SDS011;73535;52.500;13.482;2023-12-04T08:51:44;24.52;;;13.00;;
83562;SDS011;73535;52.500;13.482;2023-12-04T08:54:10;25.50;;;14.15;;
83562;SDS011;73535;52.500;13.482;2023-12-04T08:56:35;22.20;;;12.25;;
83562;SDS011;73535;52.500;13.482;2023-12-04T08:59:00;22.05;;;12.43;;
83562;SDS011;73535;52.500;13.482;2023-12-04T09:01:25;24.20;;;11.80;;
83562;SDS011;73535;52.500;13.482;2023-12-04T09:03:51;26.02;;;12.98;;
83562;SDS011;73535;52.500;13.482;2023-12-04T09:06:17;20.83;;;12.23;;
83562;SDS011;73535;52.500;13.482;2023-12-04T09:08:42;22.17;;;11.10;;
83562;SDS011;73535;52.500;13.482;2023-12-04T09:11:08;20.35;;;10.98;;
83562;SDS011;73535;52.500;13.482;2023-12-04T09:13:33;26.48;;;13.63;;
83562;SDS011;73535;52.500;13.482;2023-12-04T09:15:59;23.27;;;10.90;;
83562;SDS011;73535;52.500;13.482;2023-12-04T09:18:24;23.80;;;12.48;;
83562;SDS011;73535;52.500;13.482;2023-12-04T09:20:50;21.67;;;10.95;;
83562;SDS011;73535;52.500;13.482;2023-12-04T09:23:15;23.40;;;11.68;;
83562;SDS011;73535;52.500;13.482;2023-12-04T09:25:40;24.30;;;11.77;;
83562;SDS011;73535;52.500;13.482;2023-12-04T09:28:05;25.50;;;11.23;;
83562;SDS011;73535;52.500;13.482;2023-12-04T09:30:31;22.38;;;11.63;;
83562;SDS011;73535;52.500;13.482;2023-12-04T09:32:56;21.50;;;12.27;;
83562;SDS011;73535;52.500;13.482;2023-12-04T09:35:21;21.52;;;11.93;;
83562;SDS011;73535;52.500;13.482;2023-12-04T09:37:47;18.15;;;11.20;;
83562;SDS011;73535;52.500;13.482;2023-12-04T09:40:15;22.23;;;11.38;;
83562;SDS011;73535;52.500;13.482;2023-12-04T09:42:41;23.10;;;10.50;;
83562;SDS011;73535;52.500;13.482;2023-12-04T09:45:07;21.90;;;10.75;;
83562;SDS011;73535;52.500;13.482;2023-12-04T09:47:33;18.88;;;10.32;;
83562;SDS011;73535;52.500;13.482;2023-12-04T09:49:59;19.65;;;11.38;;
83562;SDS011;73535;52.500;13.482;2023-12-04T09:52:25;21.50;;;11.15;;
83562;SDS011;73535;52.500;13.482;2023-12-04T09:54:52;18.77;;;10.95;;
83562;SDS011;73535;52.500;13.482;2023-12-04T09:57:17;19.20;;;10.27;;
83562;SDS011;73535;52.500;13.482;2023-12-04T09:59:44;17.48;;;10.77;;
83562;SDS011;73535;52.500;13.482;2023-12-04T10:02:09;18.17;;;9.60;;
83562;SDS011;73535;52.500;13.482;2023-12-04T10:04:35;18.23;;;11.00;;
83562;SDS011;73535;52.500;13.482;2023-12-04T10:07:01;18.92;;;9.88;;
83562;SDS011;73535;52.500;13.482;2023-12-04T10:09:27;21.40;;;11.80;;
83562;SDS011;73535;52.500;13.482;2023-12-04T10:11:52;18.38;;;9.25;;
83562;SDS011;73535;52.500;13.482;2023-12-04T10:14:20;18.02;;;10.52;;
83562;SDS011;73535;52.500;13.482;2023-12-04T10:16:46;17.48;;;9.25;;
83562;SDS011;73535;52.500;13.482;2023-12-04T10:21:42;17.20;;;10.55;;
83562;SDS011;73535;52.500;13.482;2023-12-04T10:24:08;16.27;;;9.10;;
83562;SDS011;73535;52.500;13.482;2023-12-04T10:26:34;18.15;;;10.00;;
83562;SDS011;73535;52.500;13.482;2023-12-04T10:29:00;17.70;;;9.73;;
83562;SDS011;73535;52.500;13.482;2023-12-04T10:31:31;21.10;;;11.55;;
83562;SDS011;73535;52.500;13.482;2023-12-04T10:33:58;19.55;;;9.57;;
83562;SDS011;73535;52.500;13.482;2023-12-04T10:36:23;21.20;;;10.15;;
83562;SDS011;73535;52.500;13.482;2023-12-04T10:38:57;16.30;;;9.70;;
83562;SDS011;73535;52.500;13.482;2023-12-04T10:41:24;18.45;;;11.10;;
83562;SDS011;73535;52.500;13.482;2023-12-04T10:43:49;18.90;;;11.18;;
83562;SDS011;73535;52.500;13.482;2023-12-04T10:46:15;18.15;;;11.63;;
83562;SDS011;73535;52.500;13.482;2023-12-04T10:48:46;17.77;;;11.05;;
83562;SDS011;73535;52.500;13.482;2023-12-04T10:51:12;17.08;;;10.30;;
83562;SDS011;73535;52.500;13.482;2023-12-04T10:53:37;16.85;;;10.25;;
83562;SDS011;73535;52.500;13.482;2023-12-04T10:56:06;15.85;;;9.75;;
83562;SDS011;73535;52.500;13.482;2023-12-04T10:58:33;20.08;;;10.35;;
83562;SDS011;73535;52.500;13.482;2023-12-04T11:01:00;18.58;;;10.55;;
83562;SDS011;73535;52.500;13.482;2023-12-04T11:03:33;16.63;;;9.63;;
83562;SDS011;73535;52.500;13.482;2023-12-04T11:06:02;18.23;;;10.30;;
83562;SDS011;73535;52.500;13.482;2023-12-04T11:08:32;17.35;;;10.05;;
83562;SDS011;73535;52.500;13.482;2023-12-04T11:13:28;17.83;;;9.50;;
83562;SDS011;73535;52.500;13.482;2023-12-04T11:16:01;23.55;;;9.93;;
83562;SDS011;73535;52.500;13.482;2023-12-04T11:18:27;17.98;;;9.55;;
83562;SDS011;73535;52.500;13.482;2023-12-04T11:20:58;18.83;;;9.10;;
83562;SDS011;73535;52.500;13.482;2023-12-04T11:23:26;16.63;;;9.60;;
83562;SDS011;73535;52.500;13.482;2023-12-04T11:25:53;17.23;;;10.60;;
83562;SDS011;73535;52.500;13.482;2023-12-04T11:28:18;17.52;;;10.23;;
83562;SDS011;73535;52.500;13.482;2023-12-04T11:30:44;13.05;;;8.27;;
83562;SDS011;73535;52.500;13.482;2023-12-04T11:33:10;13.52;;;8.23;;
83562;SDS011;73535;52.500;13.482;2023-12-04T11:35:37;15.85;;;8.77;;
83562;SDS011;73535;52.500;13.482;2023-12-04T11:38:04;13.82;;;8.75;;
83562;SDS011;73535;52.500;13.482;2023-12-04T11:40:29;14.30;;;8.73;;
83562;SDS011;73535;52.500;13.482;2023-12-04T11:42:55;14.05;;;8.82;;
83562;SDS011;73535;52.500;13.482;2023-12-04T11:45:20;15.63;;;9.10;;
83562;SDS011;73535;52.500;13.482;2023-12-04T11:47:49;17.05;;;9.45;;
83562;SDS011;73535;52.500;13.482;2023-12-04T11:50:16;18.77;;;9.75;;
83562;SDS011;73535;52.500;13.482;2023-12-04T11:52:43;13.38;;;8.25;;
83562;SDS011;73535;52.500;13.482;2023-12-04T11:55:09;20.85;;;9.60;;
83562;SDS011;73535;52.500;13.482;2023-12-04T11:57:35;15.75;;;8.27;;
83562;SDS011;73535;52.500;13.482;2023-12-04T12:00:08;16.15;;;7.97;;
83562;SDS011;73535;52.500;13.482;2023-12-04T12:02:37;14.85;;;8.80;;
83562;SDS011;73535;52.500;13.482;2023-12-04T12:05:04;15.13;;;8.77;;
83562;SDS011;73535;52.500;13.482;2023-12-04T12:07:29;14.80;;;9.25;;
83562;SDS011;73535;52.500;13.482;2023-12-04T12:09:55;14.10;;;8.35;;
83562;SDS011;73535;52.500;13.482;2023-12-04T12:12:20;13.98;;;8.38;;
83562;SDS011;73535;52.500;13.482;2023-12-04T12:14:46;15.43;;;10.35;;
83562;SDS011;73535;52.500;13.482;2023-12-04T12:17:11;17.20;;;9.02;;
83562;SDS011;73535;52.500;13.482;2023-12-04T12:19:36;18.63;;;8.90;;
83562;SDS011;73535;52.500;13.482;2023-12-04T12:22:02;12.60;;;7.65;;
83562;SDS011;73535;52.500;13.482;2023-12-04T12:24:28;16.40;;;8.95;;
83562;SDS011;73535;52.500;13.482;2023-12-04T12:26:53;15.25;;;8.73;;
83562;SDS011;73535;52.500;13.482;2023-12-04T12:29:19;15.05;;;8.68;;
83562;SDS011;73535;52.500;13.482;2023-12-04T12:31:44;15.88;;;8.98;;
83562;SDS011;73535;52.500;13.482;2023-12-04T12:34:11;13.40;;;7.95;;
83562;SDS011;73535;52.500;13.482;2023-12-04T12:36:36;15.80;;;9.00;;
83562;SDS011;73535;52.500;13.482;2023-12-04T12:39:01;13.93;;;9.13;;
83562;SDS011;73535;52.500;13.482;2023-12-04T12:53:37;13.75;;;7.82;;
83562;SDS011;73535;52.500;13.482;2023-12-04T12:56:03;12.30;;;8.05;;
83562;SDS011;73535;52.500;13.482;2023-12-04T12:58:29;12.50;;;7.93;;
83562;SDS011;73535;52.500;13.482;2023-12-04T13:00:54;14.02;;;9.38;;
83562;SDS011;73535;52.500;13.482;2023-12-04T13:03:20;15.93;;;9.00;;
83562;SDS011;73535;52.500;13.482;2023-12-04T13:05:46;16.33;;;9.00;;
83562;SDS011;73535;52.500;13.482;2023-12-04T13:08:12;11.93;;;7.95;;
83562;SDS011;73535;52.500;13.482;2023-12-04T13:10:38;13.77;;;8.45;;
83562;SDS011;73535;52.500;13.482;2023-12-04T13:13:03;14.93;;;8.77;;
83562;SDS011;73535;52.500;13.482;2023-12-04T13:15:33;14.23;;;8.43;;
83562;SDS011;73535;52.500;13.482;2023-12-04T13:17:59;15.57;;;9.32;;
83562;SDS011;73535;52.500;13.482;2023-12-04T13:20:24;15.27;;;9.10;;
83562;SDS011;73535;52.500;13.482;2023-12-04T13:22:49;13.05;;;8.20;;
83562;SDS011;73535;52.500;13.482;2023-12-04T13:25:14;15.10;;;9.60;;
83562;SDS011;73535;52.500;13.482;2023-12-04T13:27:40;16.60;;;9.30;;
83562;SDS011;73535;52.500;13.482;2023-12-04T13:30:08;12.27;;;8.38;;
83562;SDS011;73535;52.500;13.482;2023-12-04T13:32:35;14.93;;;9.23;;
83562;SDS011;73535;52.500;13.482;2023-12-04T13:35:01;15.48;;;8.45;;
83562;SDS011;73535;52.500;13.482;2023-12-04T13:37:27;14.80;;;8.88;;
83562;SDS011;73535;52.500;13.482;2023-12-04T13:39:53;14.10;;;8.95;;
83562;SDS011;73535;52.500;13.482;2023-12-04T13:42:23;13.55;;;8.35;;
83562;SDS011;73535;52.500;13.482;2023-12-04T13:45:07;15.10;;;8.38;;
83562;SDS011;73535;52.500;13.482;2023-12-04T13:47:37;17.05;;;9.35;;
83562;SDS011;73535;52.500;13.482;2023-12-04T13:50:03;15.13;;;9.38;;
83562;SDS011;73535;52.500;13.482;2023-12-04T13:52:28;14.48;;;8.80;;
83562;SDS011;73535;52.500;13.482;2023-12-04T13:54:58;14.80;;;8.73;;
83562;SDS011;73535;52.500;13.482;2023-12-04T13:57:23;16.75;;;9.43;;
83562;SDS011;73535;52.500;13.482;2023-12-04T13:59:58;14.98;;;8.88;;
83562;SDS011;73535;52.500;13.482;2023-12-04T14:02:24;15.00;;;8.68;;
83562;SDS011;73535;52.500;13.482;2023-12-04T14:04:50;17.50;;;10.13;;
83562;SDS011;73535;52.500;13.482;2023-12-04T14:07:15;16.73;;;9.10;;
83562;SDS011;73535;52.500;13.482;2023-12-04T14:09:41;16.10;;;9.18;;
83562;SDS011;73535;52.500;13.482;2023-12-04T14:12:06;15.77;;;9.70;;
83562;SDS011;73535;52.500;13.482;2023-12-04T14:14:32;14.55;;;8.90;;
83562;SDS011;73535;52.500;13.482;2023-12-04T14:17:00;16.08;;;9.10;;
83562;SDS011;73535;52.500;13.482;2023-12-04T14:19:28;17.05;;;9.80;;